createdAt,value
2018-09-13T16:00:18.481Z,9.47
2018-09-13T16:02:46.729Z,8.97
2018-09-13T16:05:14.920Z,8.83
2018-09-13T16:07:52.606Z,9.03
2018-09-13T16:10:21.601Z,9.23
2018-09-13T16:12:49.847Z,9.70
2018-09-13T16:15:18.018Z,8.50
2018-09-13T16:17:46.214Z,10.30
2018-09-13T16:20:14.169Z,10.43
2018-09-13T16:22:42.663Z,9.90
2018-09-13T16:25:10.897Z,9.87
2018-09-13T16:27:39.089Z,8.87
2018-09-13T16:30:07.295Z,9.90
2018-09-13T16:32:35.526Z,9.17
2018-09-13T16:35:03.803Z,9.00
2018-09-13T16:37:37.182Z,9.40
2018-09-13T16:40:10.820Z,9.00
2018-09-13T16:42:51.594Z,7.90
2018-09-13T16:45:20.293Z,8.63
2018-09-13T16:47:53.638Z,10.30
2018-09-13T16:50:21.599Z,8.80
2018-09-13T16:52:49.544Z,9.20
2018-09-13T16:55:17.490Z,8.70
2018-09-13T16:57:45.465Z,9.33
2018-09-13T17:00:13.640Z,8.23
2018-09-13T17:02:41.829Z,9.10
2018-09-13T17:05:10.034Z,8.97
2018-09-13T17:07:38.252Z,9.10
2018-09-13T17:10:06.800Z,8.73
2018-09-13T17:12:35.060Z,9.77
2018-09-13T17:15:03.027Z,8.80
2018-09-13T17:17:31.219Z,9.20
2018-09-13T17:19:59.393Z,10.33
2018-09-13T17:22:27.641Z,10.00
2018-09-13T17:24:56.050Z,8.87
2018-09-13T17:27:24.169Z,9.17
2018-09-13T17:29:52.436Z,8.80
2018-09-13T17:32:20.679Z,9.57
2018-09-13T17:34:48.915Z,9.07
2018-09-13T17:37:17.170Z,9.40
2018-09-13T17:39:45.366Z,8.90
2018-09-13T17:42:13.519Z,9.50
2018-09-13T17:44:41.693Z,9.27
2018-09-13T17:47:09.905Z,9.83
2018-09-13T17:49:38.106Z,10.37
2018-09-13T17:52:06.021Z,9.20
2018-09-13T17:54:33.975Z,9.17
2018-09-13T17:57:02.148Z,10.03
2018-09-13T17:59:30.368Z,9.67
2018-09-13T18:01:58.525Z,9.20
2018-09-13T18:04:26.773Z,9.87
2018-09-13T18:06:54.997Z,10.33
2018-09-13T18:09:23.250Z,9.30
2018-09-13T18:11:51.420Z,9.20
2018-09-13T18:14:19.634Z,10.00
2018-09-13T18:16:47.803Z,9.30
2018-09-13T18:19:15.995Z,10.20
2018-09-13T18:21:44.169Z,10.30
2018-09-13T18:24:12.365Z,10.13
2018-09-13T18:26:40.574Z,10.60
2018-09-13T18:29:08.776Z,9.17
2018-09-13T18:31:36.989Z,10.93
2018-09-13T18:34:05.238Z,10.23
2018-09-13T18:36:33.434Z,9.97
2018-09-13T18:39:01.657Z,11.27
2018-09-13T18:41:29.881Z,10.53
2018-09-13T18:43:58.082Z,10.83
2018-09-13T18:46:29.364Z,10.77
2018-09-13T18:48:57.570Z,9.50
2018-09-13T18:51:25.533Z,10.30
2018-09-13T18:53:53.746Z,9.37
2018-09-13T18:56:21.665Z,9.87
2018-09-13T18:58:49.860Z,11.30
2018-09-13T19:01:18.106Z,10.27
2018-09-13T19:03:46.313Z,11.23
2018-09-13T19:06:14.551Z,10.27
2018-09-13T19:08:42.773Z,10.87
2018-09-13T19:11:11.016Z,10.97
2018-09-13T19:13:39.278Z,10.70
2018-09-13T19:16:07.950Z,11.53
2018-09-13T19:18:36.189Z,11.90
2018-09-13T19:21:04.445Z,10.37
2018-09-13T19:23:32.417Z,11.80
2018-09-13T19:26:00.637Z,10.57
2018-09-13T19:28:28.874Z,12.10
2018-09-13T19:30:57.147Z,11.37
2018-09-13T19:33:25.374Z,11.73
2018-09-13T19:35:53.608Z,12.60
2018-09-13T19:38:21.842Z,11.23
2018-09-13T19:40:50.121Z,11.97
2018-09-13T19:43:18.365Z,11.70
2018-09-13T19:45:46.342Z,10.60
2018-09-13T19:48:14.580Z,11.60
2018-09-13T19:50:42.607Z,10.97
2018-09-13T19:53:10.502Z,12.43
2018-09-13T19:55:38.819Z,12.10
2018-09-13T19:58:06.991Z,11.43
2018-09-13T20:00:34.958Z,10.93
2018-09-13T20:03:03.190Z,11.97
2018-09-13T20:05:31.364Z,12.63
2018-09-13T20:07:59.585Z,11.30
2018-09-13T20:10:27.764Z,11.80
2018-09-13T20:12:55.740Z,11.97
2018-09-13T20:15:23.979Z,10.60
2018-09-13T20:17:52.181Z,10.57
2018-09-13T20:20:20.440Z,11.20
2018-09-13T20:22:48.857Z,11.77
2018-09-13T20:25:17.071Z,11.40
2018-09-13T20:27:45.275Z,10.93
2018-09-13T20:30:13.545Z,11.13
2018-09-13T20:32:41.719Z,11.90
2018-09-13T20:35:09.973Z,12.40
2018-09-13T20:37:38.237Z,11.20
2018-09-13T20:40:06.736Z,11.87
2018-09-13T20:42:35.005Z,12.37
2018-09-13T20:45:03.198Z,12.70
2018-09-13T20:47:31.401Z,10.97
2018-09-13T20:49:59.621Z,12.17
2018-09-13T20:52:27.823Z,12.70
2018-09-13T20:54:56.029Z,12.17
2018-09-13T20:57:24.286Z,11.43
2018-09-13T20:59:52.529Z,12.67
2018-09-13T21:02:20.725Z,11.10
2018-09-13T21:04:48.936Z,13.10
2018-09-13T21:07:17.113Z,12.13
2018-09-13T21:09:45.345Z,11.63
2018-09-13T21:12:13.539Z,13.03
2018-09-13T21:14:41.706Z,12.63
2018-09-13T21:17:09.736Z,11.53
2018-09-13T21:19:37.851Z,12.63
2018-09-13T21:22:05.785Z,12.20
2018-09-13T21:24:34.014Z,13.27
2018-09-13T21:27:02.155Z,12.27
2018-09-13T21:29:30.355Z,12.57
2018-09-13T21:31:58.534Z,11.80
2018-09-13T21:34:26.708Z,11.87
2018-09-13T21:36:54.915Z,11.80
2018-09-13T21:39:24.111Z,10.90
2018-09-13T21:41:52.336Z,12.67
2018-09-13T21:44:20.609Z,13.17
2018-09-13T21:46:48.741Z,14.20
2018-09-13T21:49:16.684Z,13.50
2018-09-13T21:51:45.004Z,13.80
2018-09-13T21:54:13.271Z,14.23
2018-09-13T21:56:41.244Z,13.23
2018-09-13T21:59:09.459Z,14.50
